sensor_id;sensor_type;location;lat;lon;timestamp;P1;durP1;ratioP1;P2;durP2;ratioP2
22965;SDS011;11649;48.090;9.754;2023-04-26T00:00:48;12.95;;;9.55;;
22965;SDS011;11649;48.090;9.754;2023-04-26T00:03:15;11.02;;;9.10;;
22965;SDS011;11649;48.090;9.754;2023-04-26T00:05:42;12.73;;;9.85;;
22965;SDS011;11649;48.090;9.754;2023-04-26T00:08:08;12.40;;;8.80;;
22965;SDS011;11649;48.090;9.754;2023-04-26T00:10:35;12.05;;;8.50;;
22965;SDS011;11649;48.090;9.754;2023-04-26T00:13:02;10.57;;;7.90;;
22965;SDS011;11649;48.090;9.754;2023-04-26T00:15:29;10.70;;;7.53;;
22965;SDS011;11649;48.090;9.754;2023-04-26T00:17:56;10.40;;;8.10;;
22965;SDS011;11649;48.090;9.754;2023-04-26T00:20:22;11.23;;;8.00;;
22965;SDS011;11649;48.090;9.754;2023-04-26T00:22:49;10.30;;;8.00;;
22965;SDS011;11649;48.090;9.754;2023-04-26T00:25:16;9.40;;;7.25;;
22965;SDS011;11649;48.090;9.754;2023-04-26T00:27:43;12.25;;;8.23;;
22965;SDS011;11649;48.090;9.754;2023-04-26T00:30:10;13.70;;;8.48;;
22965;SDS011;11649;48.090;9.754;2023-04-26T00:32:37;10.18;;;7.90;;
22965;SDS011;11649;48.090;9.754;2023-04-26T00:35:04;13.15;;;8.05;;
22965;SDS011;11649;48.090;9.754;2023-04-26T00:37:31;12.10;;;8.55;;
22965;SDS011;11649;48.090;9.754;2023-04-26T00:39:58;12.30;;;8.77;;
22965;SDS011;11649;48.090;9.754;2023-04-26T00:42:25;12.43;;;8.85;;
22965;SDS011;11649;48.090;9.754;2023-04-26T00:44:52;12.82;;;8.65;;
22965;SDS011;11649;48.090;9.754;2023-04-26T00:47:23;14.30;;;9.05;;
22965;SDS011;11649;48.090;9.754;2023-04-26T00:49:51;13.90;;;9.10;;
22965;SDS011;11649;48.090;9.754;2023-04-26T00:52:18;12.60;;;9.23;;
22965;SDS011;11649;48.090;9.754;2023-04-26T00:54:45;14.00;;;9.15;;
22965;SDS011;11649;48.090;9.754;2023-04-26T00:57:13;12.10;;;8.73;;
22965;SDS011;11649;48.090;9.754;2023-04-26T00:59:40;13.70;;;9.15;;
22965;SDS011;11649;48.090;9.754;2023-04-26T01:02:07;14.55;;;10.20;;
22965;SDS011;11649;48.090;9.754;2023-04-26T01:04:34;17.23;;;9.98;;
22965;SDS011;11649;48.090;9.754;2023-04-26T01:07:02;15.00;;;10.20;;
22965;SDS011;11649;48.090;9.754;2023-04-26T01:09:29;16.10;;;10.32;;
22965;SDS011;11649;48.090;9.754;2023-04-26T01:11:57;14.70;;;10.57;;
22965;SDS011;11649;48.090;9.754;2023-04-26T01:14:25;15.25;;;9.98;;
22965;SDS011;11649;48.090;9.754;2023-04-26T01:16:53;14.02;;;9.98;;
22965;SDS011;11649;48.090;9.754;2023-04-26T01:19:21;14.65;;;9.90;;
22965;SDS011;11649;48.090;9.754;2023-04-26T01:21:48;16.88;;;10.55;;
22965;SDS011;11649;48.090;9.754;2023-04-26T01:24:15;15.82;;;10.27;;
22965;SDS011;11649;48.090;9.754;2023-04-26T01:26:42;17.15;;;11.50;;
22965;SDS011;11649;48.090;9.754;2023-04-26T01:29:14;15.65;;;11.02;;
22965;SDS011;11649;48.090;9.754;2023-04-26T01:31:45;16.67;;;10.88;;
22965;SDS011;11649;48.090;9.754;2023-04-26T01:34:13;14.60;;;9.93;;
22965;SDS011;11649;48.090;9.754;2023-04-26T01:36:40;15.90;;;11.02;;
22965;SDS011;11649;48.090;9.754;2023-04-26T01:39:07;14.02;;;10.20;;
22965;SDS011;11649;48.090;9.754;2023-04-26T01:41:34;17.73;;;10.82;;
22965;SDS011;11649;48.090;9.754;2023-04-26T01:44:01;14.73;;;10.15;;
22965;SDS011;11649;48.090;9.754;2023-04-26T01:46:29;16.13;;;10.45;;
22965;SDS011;11649;48.090;9.754;2023-04-26T01:48:55;14.82;;;10.05;;
22965;SDS011;11649;48.090;9.754;2023-04-26T01:51:22;13.00;;;9.50;;
22965;SDS011;11649;48.090;9.754;2023-04-26T01:53:49;14.35;;;9.68;;
22965;SDS011;11649;48.090;9.754;2023-04-26T01:56:16;12.60;;;9.52;;
22965;SDS011;11649;48.090;9.754;2023-04-26T01:58:43;15.82;;;9.77;;
22965;SDS011;11649;48.090;9.754;2023-04-26T02:01:10;14.50;;;9.35;;
22965;SDS011;11649;48.090;9.754;2023-04-26T02:03:37;11.95;;;8.80;;
22965;SDS011;11649;48.090;9.754;2023-04-26T02:06:04;13.52;;;9.85;;
22965;SDS011;11649;48.090;9.754;2023-04-26T02:08:31;14.95;;;9.80;;
22965;SDS011;11649;48.090;9.754;2023-04-26T02:10:58;12.07;;;9.77;;
22965;SDS011;11649;48.090;9.754;2023-04-26T02:13:25;15.25;;;10.20;;
22965;SDS011;11649;48.090;9.754;2023-04-26T02:15:52;13.88;;;11.20;;
22965;SDS011;11649;48.090;9.754;2023-04-26T02:18:19;17.08;;;11.35;;
22965;SDS011;11649;48.090;9.754;2023-04-26T02:20:47;19.38;;;12.25;;
22965;SDS011;11649;48.090;9.754;2023-04-26T02:23:14;16.02;;;10.95;;
22965;SDS011;11649;48.090;9.754;2023-04-26T02:25:42;17.52;;;11.15;;
22965;SDS011;11649;48.090;9.754;2023-04-26T02:28:12;12.68;;;10.15;;
22965;SDS011;11649;48.090;9.754;2023-04-26T02:30:41;14.32;;;10.60;;
22965;SDS011;11649;48.090;9.754;2023-04-26T02:33:08;16.02;;;11.10;;
22965;SDS011;11649;48.090;9.754;2023-04-26T02:35:35;17.77;;;10.55;;
22965;SDS011;11649;48.090;9.754;2023-04-26T02:38:02;15.52;;;10.90;;
22965;SDS011;11649;48.090;9.754;2023-04-26T02:40:29;13.25;;;10.88;;
22965;SDS011;11649;48.090;9.754;2023-04-26T02:42:56;13.30;;;10.50;;
22965;SDS011;11649;48.090;9.754;2023-04-26T02:45:23;16.67;;;10.00;;
22965;SDS011;11649;48.090;9.754;2023-04-26T02:47:49;14.10;;;9.90;;
22965;SDS011;11649;48.090;9.754;2023-04-26T02:50:16;14.18;;;9.90;;
22965;SDS011;11649;48.090;9.754;2023-04-26T02:52:43;16.30;;;11.30;;
22965;SDS011;11649;48.090;9.754;2023-04-26T02:55:10;18.15;;;10.73;;
22965;SDS011;11649;48.090;9.754;2023-04-26T02:57:36;14.60;;;10.32;;
22965;SDS011;11649;48.090;9.754;2023-04-26T03:00:03;14.90;;;10.32;;
22965;SDS011;11649;48.090;9.754;2023-04-26T03:02:31;16.77;;;10.32;;
22965;SDS011;11649;48.090;9.754;2023-04-26T03:04:58;16.75;;;10.20;;
22965;SDS011;11649;48.090;9.754;2023-04-26T03:07:25;13.80;;;9.30;;
22965;SDS011;11649;48.090;9.754;2023-04-26T03:09:52;12.23;;;8.93;;
22965;SDS011;11649;48.090;9.754;2023-04-26T03:12:18;12.38;;;9.80;;
22965;SDS011;11649;48.090;9.754;2023-04-26T03:14:45;11.40;;;8.57;;
22965;SDS011;11649;48.090;9.754;2023-04-26T03:17:12;12.13;;;9.05;;
22965;SDS011;11649;48.090;9.754;2023-04-26T03:19:39;11.95;;;8.68;;
22965;SDS011;11649;48.090;9.754;2023-04-26T03:22:05;11.75;;;8.93;;
22965;SDS011;11649;48.090;9.754;2023-04-26T03:24:32;13.30;;;9.23;;
22965;SDS011;11649;48.090;9.754;2023-04-26T03:26:59;13.98;;;8.98;;
22965;SDS011;11649;48.090;9.754;2023-04-26T03:29:26;14.48;;;9.40;;
22965;SDS011;11649;48.090;9.754;2023-04-26T03:31:52;13.02;;;9.30;;
22965;SDS011;11649;48.090;9.754;2023-04-26T03:34:19;13.82;;;8.88;;
22965;SDS011;11649;48.090;9.754;2023-04-26T03:36:46;10.60;;;8.13;;
22965;SDS011;11649;48.090;9.754;2023-04-26T03:39:13;14.05;;;9.70;;
22965;SDS011;11649;48.090;9.754;2023-04-26T03:41:41;17.60;;;9.50;;
22965;SDS011;11649;48.090;9.754;2023-04-26T03:44:08;13.57;;;9.85;;
22965;SDS011;11649;48.090;9.754;2023-04-26T03:46:35;11.45;;;8.23;;
22965;SDS011;11649;48.090;9.754;2023-04-26T03:49:01;12.65;;;9.00;;
22965;SDS011;11649;48.090;9.754;2023-04-26T03:51:28;13.30;;;9.50;;
22965;SDS011;11649;48.090;9.754;2023-04-26T03:53:57;15.63;;;10.48;;
22965;SDS011;11649;48.090;9.754;2023-04-26T03:56:24;16.05;;;10.52;;
22965;SDS011;11649;48.090;9.754;2023-04-26T03:58:51;15.23;;;11.02;;
22965;SDS011;11649;48.090;9.754;2023-04-26T04:01:18;14.02;;;9.50;;
22965;SDS011;11649;48.090;9.754;2023-04-26T04:03:45;13.57;;;9.43;;
22965;SDS011;11649;48.090;9.754;2023-04-26T04:06:12;12.55;;;9.40;;
22965;SDS011;11649;48.090;9.754;2023-04-26T04:08:39;11.70;;;8.35;;
22965;SDS011;11649;48.090;9.754;2023-04-26T04:11:06;11.82;;;9.00;;
22965;SDS011;11649;48.090;9.754;2023-04-26T04:13:33;11.32;;;8.45;;
22965;SDS011;11649;48.090;9.754;2023-04-26T04:16:00;13.63;;;10.15;;
22965;SDS011;11649;48.090;9.754;2023-04-26T04:18:26;13.48;;;9.35;;
22965;SDS011;11649;48.090;9.754;2023-04-26T04:20:53;13.95;;;9.57;;
22965;SDS011;11649;48.090;9.754;2023-04-26T04:23:20;14.38;;;9.30;;
22965;SDS011;11649;48.090;9.754;2023-04-26T04:25:47;13.63;;;9.73;;
22965;SDS011;11649;48.090;9.754;2023-04-26T04:28:14;12.75;;;9.65;;
22965;SDS011;11649;48.090;9.754;2023-04-26T04:30:41;12.63;;;8.93;;
22965;SDS011;11649;48.090;9.754;2023-04-26T04:33:09;14.30;;;9.75;;
22965;SDS011;11649;48.090;9.754;2023-04-26T04:35:36;13.00;;;8.52;;
22965;SDS011;11649;48.090;9.754;2023-04-26T04:38:02;11.23;;;8.50;;
22965;SDS011;11649;48.090;9.754;2023-04-26T04:40:29;13.43;;;8.90;;
22965;SDS011;11649;48.090;9.754;2023-04-26T04:42:56;11.70;;;8.88;;
22965;SDS011;11649;48.090;9.754;2023-04-26T04:45:23;12.70;;;9.05;;
22965;SDS011;11649;48.090;9.754;2023-04-26T04:47:50;15.30;;;9.75;;
22965;SDS011;11649;48.090;9.754;2023-04-26T04:50:19;13.43;;;8.85;;
22965;SDS011;11649;48.090;9.754;2023-04-26T04:52:46;13.20;;;8.95;;
22965;SDS011;11649;48.090;9.754;2023-04-26T04:55:13;12.07;;;8.73;;
22965;SDS011;11649;48.090;9.754;2023-04-26T04:57:40;11.80;;;8.75;;
22965;SDS011;11649;48.090;9.754;2023-04-26T05:00:08;11.18;;;8.73;;
22965;SDS011;11649;48.090;9.754;2023-04-26T05:02:35;13.32;;;9.20;;
22965;SDS011;11649;48.090;9.754;2023-04-26T05:05:03;12.10;;;8.73;;
22965;SDS011;11649;48.090;9.754;2023-04-26T05:07:31;10.98;;;8.70;;
22965;SDS011;11649;48.090;9.754;2023-04-26T05:09:58;12.55;;;9.65;;
22965;SDS011;11649;48.090;9.754;2023-04-26T05:12:25;11.32;;;9.05;;
22965;SDS011;11649;48.090;9.754;2023-04-26T05:14:52;10.82;;;8.52;;
22965;SDS011;11649;48.090;9.754;2023-04-26T05:17:19;13.15;;;8.93;;
22965;SDS011;11649;48.090;9.754;2023-04-26T05:19:46;12.88;;;9.70;;
22965;SDS011;11649;48.090;9.754;2023-04-26T05:22:13;12.25;;;9.95;;
22965;SDS011;11649;48.090;9.754;2023-04-26T05:24:44;13.45;;;10.40;;
22965;SDS011;11649;48.090;9.754;2023-04-26T05:27:12;15.23;;;10.98;;
22965;SDS011;11649;48.090;9.754;2023-04-26T05:29:39;17.98;;;11.55;;
22965;SDS011;11649;48.090;9.754;2023-04-26T05:32:07;15.38;;;10.90;;
22965;SDS011;11649;48.090;9.754;2023-04-26T05:34:34;15.32;;;11.02;;
22965;SDS011;11649;48.090;9.754;2023-04-26T05:37:01;14.75;;;10.75;;
22965;SDS011;11649;48.090;9.754;2023-04-26T05:39:29;14.02;;;10.20;;
22965;SDS011;11649;48.090;9.754;2023-04-26T05:41:55;13.20;;;9.90;;
22965;SDS011;11649;48.090;9.754;2023-04-26T05:44:22;14.02;;;10.48;;
22965;SDS011;11649;48.090;9.754;2023-04-26T05:46:49;15.63;;;10.48;;
22965;SDS011;11649;48.090;9.754;2023-04-26T05:49:16;14.77;;;10.23;;
22965;SDS011;11649;48.090;9.754;2023-04-26T05:51:43;16.52;;;10.23;;
22965;SDS011;11649;48.090;9.754;2023-04-26T05:54:10;13.00;;;9.57;;
22965;SDS011;11649;48.090;9.754;2023-04-26T05:56:37;15.85;;;10.63;;
22965;SDS011;11649;48.090;9.754;2023-04-26T05:59:04;15.73;;;10.90;;
22965;SDS011;11649;48.090;9.754;2023-04-26T06:01:31;17.23;;;11.32;;
22965;SDS011;11649;48.090;9.754;2023-04-26T06:03:58;17.23;;;11.27;;
22965;SDS011;11649;48.090;9.754;2023-04-26T06:06:26;18.92;;;12.50;;
22965;SDS011;11649;48.090;9.754;2023-04-26T06:08:53;17.45;;;12.27;;
22965;SDS011;11649;48.090;9.754;2023-04-26T06:11:20;18.00;;;12.75;;
22965;SDS011;11649;48.090;9.754;2023-04-26T06:13:47;16.33;;;11.50;;
22965;SDS011;11649;48.090;9.754;2023-04-26T06:16:15;19.17;;;11.70;;
22965;SDS011;11649;48.090;9.754;2023-04-26T06:18:42;13.38;;;10.52;;
22965;SDS011;11649;48.090;9.754;2023-04-26T06:21:09;13.35;;;9.85;;
22965;SDS011;11649;48.090;9.754;2023-04-26T06:23:35;14.68;;;9.93;;
22965;SDS011;11649;48.090;9.754;2023-04-26T06:26:02;16.63;;;10.48;;
22965;SDS011;11649;48.090;9.754;2023-04-26T06:28:29;16.48;;;10.30;;
22965;SDS011;11649;48.090;9.754;2023-04-26T06:30:56;15.63;;;10.93;;
22965;SDS011;11649;48.090;9.754;2023-04-26T06:33:23;15.60;;;10.65;;
22965;SDS011;11649;48.090;9.754;2023-04-26T06:35:49;17.40;;;11.20;;
22965;SDS011;11649;48.090;9.754;2023-04-26T06:38:17;16.35;;;11.05;;
22965;SDS011;11649;48.090;9.754;2023-04-26T06:40:44;18.38;;;11.32;;
22965;SDS011;11649;48.090;9.754;2023-04-26T06:43:10;17.30;;;11.40;;
22965;SDS011;11649;48.090;9.754;2023-04-26T06:45:37;19.20;;;11.57;;
22965;SDS011;11649;48.090;9.754;2023-04-26T06:48:06;16.45;;;10.60;;
22965;SDS011;11649;48.090;9.754;2023-04-26T06:50:36;16.08;;;9.90;;
22965;SDS011;11649;48.090;9.754;2023-04-26T06:53:05;15.20;;;10.02;;
22965;SDS011;11649;48.090;9.754;2023-04-26T06:55:32;16.02;;;10.02;;
22965;SDS011;11649;48.090;9.754;2023-04-26T06:58:00;17.48;;;10.93;;
22965;SDS011;11649;48.090;9.754;2023-04-26T07:00:27;16.70;;;10.70;;
22965;SDS011;11649;48.090;9.754;2023-04-26T07:02:55;14.55;;;10.18;;
22965;SDS011;11649;48.090;9.754;2023-04-26T07:05:22;15.98;;;10.20;;
22965;SDS011;11649;48.090;9.754;2023-04-26T07:07:49;15.27;;;10.68;;
22965;SDS011;11649;48.090;9.754;2023-04-26T07:10:16;15.52;;;9.73;;
22965;SDS011;11649;48.090;9.754;2023-04-26T07:12:42;15.40;;;10.05;;
22965;SDS011;11649;48.090;9.754;2023-04-26T07:15:10;16.50;;;10.73;;
22965;SDS011;11649;48.090;9.754;2023-04-26T07:17:37;15.35;;;9.43;;
22965;SDS011;11649;48.090;9.754;2023-04-26T07:20:04;17.63;;;11.00;;
22965;SDS011;11649;48.090;9.754;2023-04-26T07:22:31;16.45;;;10.63;;
22965;SDS011;11649;48.090;9.754;2023-04-26T07:24:58;15.55;;;10.43;;
22965;SDS011;11649;48.090;9.754;2023-04-26T07:27:25;15.35;;;9.98;;
22965;SDS011;11649;48.090;9.754;2023-04-26T07:29:52;12.38;;;9.57;;
22965;SDS011;11649;48.090;9.754;2023-04-26T07:32:20;15.02;;;9.80;;
22965;SDS011;11649;48.090;9.754;2023-04-26T07:34:47;13.60;;;9.65;;
22965;SDS011;11649;48.090;9.754;2023-04-26T07:37:14;12.90;;;9.50;;
22965;SDS011;11649;48.090;9.754;2023-04-26T07:39:41;13.35;;;9.55;;
22965;SDS011;11649;48.090;9.754;2023-04-26T07:42:07;13.10;;;9.43;;
22965;SDS011;11649;48.090;9.754;2023-04-26T07:44:34;13.52;;;8.75;;
22965;SDS011;11649;48.090;9.754;2023-04-26T07:47:01;13.32;;;9.00;;
22965;SDS011;11649;48.090;9.754;2023-04-26T07:49:28;12.77;;;9.60;;
22965;SDS011;11649;48.090;9.754;2023-04-26T07:51:55;12.60;;;8.82;;
22965;SDS011;11649;48.090;9.754;2023-04-26T07:54:23;9.63;;;7.45;;
22965;SDS011;11649;48.090;9.754;2023-04-26T07:56:50;12.15;;;7.90;;
22965;SDS011;11649;48.090;9.754;2023-04-26T07:59:17;12.50;;;7.45;;
22965;SDS011;11649;48.090;9.754;2023-04-26T08:01:43;11.50;;;7.85;;
22965;SDS011;11649;48.090;9.754;2023-04-26T08:04:10;17.23;;;9.60;;
22965;SDS011;11649;48.090;9.754;2023-04-26T08:06:38;14.18;;;8.93;;
22965;SDS011;11649;48.090;9.754;2023-04-26T08:09:10;14.23;;;8.45;;
22965;SDS011;11649;48.090;9.754;2023-04-26T08:11:36;12.82;;;8.45;;
22965;SDS011;11649;48.090;9.754;2023-04-26T08:14:03;12.20;;;7.57;;
22965;SDS011;11649;48.090;9.754;2023-04-26T08:16:30;12.32;;;7.55;;
22965;SDS011;11649;48.090;9.754;2023-04-26T08:18:57;10.40;;;7.38;;
22965;SDS011;11649;48.090;9.754;2023-04-26T08:21:28;12.45;;;7.82;;
22965;SDS011;11649;48.090;9.754;2023-04-26T08:23:54;9.90;;;6.82;;
22965;SDS011;11649;48.090;9.754;2023-04-26T08:26:21;9.25;;;7.13;;
22965;SDS011;11649;48.090;9.754;2023-04-26T08:28:48;9.95;;;7.63;;
22965;SDS011;11649;48.090;9.754;2023-04-26T08:31:15;10.52;;;7.35;;
22965;SDS011;11649;48.090;9.754;2023-04-26T08:33:43;10.05;;;7.28;;
22965;SDS011;11649;48.090;9.754;2023-04-26T08:36:09;10.80;;;7.40;;
22965;SDS011;11649;48.090;9.754;2023-04-26T08:38:36;11.73;;;7.38;;
22965;SDS011;11649;48.090;9.754;2023-04-26T08:41:03;10.68;;;7.43;;
22965;SDS011;11649;48.090;9.754;2023-04-26T08:43:30;9.15;;;6.50;;
22965;SDS011;11649;48.090;9.754;2023-04-26T08:46:00;9.68;;;6.25;;
22965;SDS011;11649;48.090;9.754;2023-04-26T08:48:29;8.57;;;5.93;;
22965;SDS011;11649;48.090;9.754;2023-04-26T08:50:59;10.88;;;6.35;;
22965;SDS011;11649;48.090;9.754;2023-04-26T08:53:27;8.23;;;5.97;;
22965;SDS011;11649;48.090;9.754;2023-04-26T08:55:55;8.80;;;6.15;;
22965;SDS011;11649;48.090;9.754;2023-04-26T08:58:23;7.40;;;5.60;;
22965;SDS011;11649;48.090;9.754;2023-04-26T09:00:50;8.10;;;6.15;;
22965;SDS011;11649;48.090;9.754;2023-04-26T09:03:17;9.85;;;6.40;;
22965;SDS011;11649;48.090;9.754;2023-04-26T09:05:44;9.20;;;6.28;;
22965;SDS011;11649;48.090;9.754;2023-04-26T09:08:17;8.07;;;5.72;;
22965;SDS011;11649;48.090;9.754;2023-04-26T09:10:44;14.00;;;5.90;;
22965;SDS011;11649;48.090;9.754;2023-04-26T09:13:11;8.15;;;5.03;;
22965;SDS011;11649;48.090;9.754;2023-04-26T09:15:39;7.72;;;5.40;;
22965;SDS011;11649;48.090;9.754;2023-04-26T09:18:16;8.00;;;4.93;;
22965;SDS011;11649;48.090;9.754;2023-04-26T09:20:45;9.18;;;5.30;;
22965;SDS011;11649;48.090;9.754;2023-04-26T09:23:26;8.70;;;5.30;;
22965;SDS011;11649;48.090;9.754;2023-04-26T09:25:53;4.75;;;4.03;;
22965;SDS011;11649;48.090;9.754;2023-04-26T09:28:21;6.65;;;4.38;;
22965;SDS011;11649;48.090;9.754;2023-04-26T09:30:49;7.28;;;3.80;;
22965;SDS011;11649;48.090;9.754;2023-04-26T09:33:16;4.90;;;3.95;;
22965;SDS011;11649;48.090;9.754;2023-04-26T09:35:44;6.15;;;4.03;;
22965;SDS011;11649;48.090;9.754;2023-04-26T09:38:17;6.07;;;3.67;;
22965;SDS011;11649;48.090;9.754;2023-04-26T09:40:45;5.75;;;3.70;;
22965;SDS011;11649;48.090;9.754;2023-04-26T09:43:13;6.40;;;4.30;;
22965;SDS011;11649;48.090;9.754;2023-04-26T09:45:45;8.95;;;4.18;;
22965;SDS011;11649;48.090;9.754;2023-04-26T09:48:13;6.70;;;4.45;;
22965;SDS011;11649;48.090;9.754;2023-04-26T09:50:55;5.57;;;4.00;;
22965;SDS011;11649;48.090;9.754;2023-04-26T09:53:25;7.28;;;3.70;;
22965;SDS011;11649;48.090;9.754;2023-04-26T09:55:56;7.93;;;4.32;;
22965;SDS011;11649;48.090;9.754;2023-04-26T09:58:33;7.47;;;4.30;;
22965;SDS011;11649;48.090;9.754;2023-04-26T10:01:04;6.25;;;4.20;;
22965;SDS011;11649;48.090;9.754;2023-04-26T10:03:33;4.93;;;3.53;;
22965;SDS011;11649;48.090;9.754;2023-04-26T10:06:02;6.78;;;3.38;;
22965;SDS011;11649;48.090;9.754;2023-04-26T10:08:30;4.90;;;3.63;;
22965;SDS011;11649;48.090;9.754;2023-04-26T10:10:58;5.55;;;3.40;;
22965;SDS011;11649;48.090;9.754;2023-04-26T10:13:26;5.65;;;3.30;;
22965;SDS011;11649;48.090;9.754;2023-04-26T10:15:53;3.95;;;3.42;;
22965;SDS011;11649;48.090;9.754;2023-04-26T10:18:21;5.57;;;4.07;;
22965;SDS011;11649;48.090;9.754;2023-04-26T10:20:49;7.18;;;3.85;;
22965;SDS011;11649;48.090;9.754;2023-04-26T10:23:19;5.88;;;4.00;;
22965;SDS011;11649;48.090;9.754;2023-04-26T10:25:51;5.97;;;3.60;;
22965;SDS011;11649;48.090;9.754;2023-04-26T10:28:52;7.90;;;3.95;;
22965;SDS011;11649;48.090;9.754;2023-04-26T10:31:04;5.57;;;3.25;;
22965;SDS011;11649;48.090;9.754;2023-04-26T10:33:32;4.90;;;3.00;;
22965;SDS011;11649;48.090;9.754;2023-04-26T10:36:03;5.55;;;3.63;;
22965;SDS011;11649;48.090;9.754;2023-04-26T10:38:32;5.63;;;2.85;;
22965;SDS011;11649;48.090;9.754;2023-04-26T10:43:59;4.00;;;2.63;;
22965;SDS011;11649;48.090;9.754;2023-04-26T10:46:50;3.42;;;2.70;;
22965;SDS011;11649;48.090;9.754;2023-04-26T10:49:20;4.88;;;3.08;;
22965;SDS011;11649;48.090;9.754;2023-04-26T10:54:56;3.67;;;2.80;;
22965;SDS011;11649;48.090;9.754;2023-04-26T11:00:15;6.10;;;4.30;;
22965;SDS011;11649;48.090;9.754;2023-04-26T11:02:43;7.30;;;4.32;;
22965;SDS011;11649;48.090;9.754;2023-04-26T11:05:32;7.50;;;4.13;;
22965;SDS011;11649;48.090;9.754;2023-04-26T11:10:56;5.22;;;3.75;;
22965;SDS011;11649;48.090;9.754;2023-04-26T11:13:36;4.85;;;3.42;;
22965;SDS011;11649;48.090;9.754;2023-04-26T11:16:04;5.47;;;3.50;;
22965;SDS011;11649;48.090;9.754;2023-04-26T11:18:33;6.25;;;3.88;;
22965;SDS011;11649;48.090;9.754;2023-04-26T11:21:01;8.93;;;3.65;;
22965;SDS011;11649;48.090;9.754;2023-04-26T11:23:30;4.90;;;3.92;;
22965;SDS011;11649;48.090;9.754;2023-04-26T11:26:04;4.30;;;3.67;;
22965;SDS011;11649;48.090;9.754;2023-04-26T11:28:34;7.55;;;4.20;;
22965;SDS011;11649;48.090;9.754;2023-04-26T11:31:02;4.57;;;3.50;;
22965;SDS011;11649;48.090;9.754;2023-04-26T11:33:30;5.32;;;3.63;;
22965;SDS011;11649;48.090;9.754;2023-04-26T11:35:59;6.22;;;3.30;;
22965;SDS011;11649;48.090;9.754;2023-04-26T11:38:27;3.88;;;2.97;;
22965;SDS011;11649;48.090;9.754;2023-04-26T11:46:02;4.40;;;3.03;;
22965;SDS011;11649;48.090;9.754;2023-04-26T11:48:34;4.47;;;2.60;;
22965;SDS011;11649;48.090;9.754;2023-04-26T11:51:03;3.88;;;2.60;;
22965;SDS011;11649;48.090;9.754;2023-04-26T11:53:38;4.85;;;2.83;;
22965;SDS011;11649;48.090;9.754;2023-04-26T11:56:14;4.40;;;2.50;;
22965;SDS011;11649;48.090;9.754;2023-04-26T11:58:49;5.15;;;2.50;;
22965;SDS011;11649;48.090;9.754;2023-04-26T12:03:49;4.40;;;2.50;;
22965;SDS011;11649;48.090;9.754;2023-04-26T12:06:18;5.20;;;2.75;;
22965;SDS011;11649;48.090;9.754;2023-04-26T12:08:49;4.28;;;3.10;;
22965;SDS011;11649;48.090;9.754;2023-04-26T12:11:19;5.82;;;2.70;;
22965;SDS011;11649;48.090;9.754;2023-04-26T12:13:46;3.53;;;2.58;;
22965;SDS011;11649;48.090;9.754;2023-04-26T12:16:13;4.88;;;2.63;;
22965;SDS011;11649;48.090;9.754;2023-04-26T12:18:52;5.80;;;2.70;;
22965;SDS011;11649;48.090;9.754;2023-04-26T12:21:20;4.68;;;2.45;;
22965;SDS011;11649;48.090;9.754;2023-04-26T12:23:47;7.00;;;2.08;;
22965;SDS011;11649;48.090;9.754;2023-04-26T12:26:14;3.22;;;2.10;;
22965;SDS011;11649;48.090;9.754;2023-04-26T12:28:42;3.75;;;2.60;;
22965;SDS011;11649;48.090;9.754;2023-04-26T12:31:09;3.95;;;2.53;;
22965;SDS011;11649;48.090;9.754;2023-04-26T12:33:36;5.00;;;2.42;;
22965;SDS011;11649;48.090;9.754;2023-04-26T12:36:09;3.05;;;2.50;;
22965;SDS011;11649;48.090;9.754;2023-04-26T12:38:37;5.10;;;2.97;;
22965;SDS011;11649;48.090;9.754;2023-04-26T12:41:05;2.97;;;2.30;;
22965;SDS011;11649;48.090;9.754;2023-04-26T12:43:32;2.92;;;2.20;;
22965;SDS011;11649;48.090;9.754;2023-04-26T12:45:59;3.40;;;2.58;;
22965;SDS011;11649;48.090;9.754;2023-04-26T12:48:26;4.07;;;2.42;;
22965;SDS011;11649;48.090;9.754;2023-04-26T12:50:54;2.88;;;2.20;;
22965;SDS011;11649;48.090;9.754;2023-04-26T12:53:21;3.15;;;1.90;;
22965;SDS011;11649;48.090;9.754;2023-04-26T12:55:47;5.47;;;2.60;;
22965;SDS011;11649;48.090;9.754;2023-04-26T12:58:14;5.53;;;2.60;;
22965;SDS011;11649;48.090;9.754;2023-04-26T13:00:41;4.20;;;2.50;;
22965;SDS011;11649;48.090;9.754;2023-04-26T13:03:09;4.07;;;2.30;;
22965;SDS011;11649;48.090;9.754;2023-04-26T13:05:40;4.10;;;2.10;;
22965;SDS011;11649;48.090;9.754;2023-04-26T13:08:07;5.95;;;2.90;;
22965;SDS011;11649;48.090;9.754;2023-04-26T13:10:34;5.55;;;2.35;;
22965;SDS011;11649;48.090;9.754;2023-04-26T13:13:00;2.85;;;2.10;;
22965;SDS011;11649;48.090;9.754;2023-04-26T13:15:27;3.85;;;2.10;;
22965;SDS011;11649;48.090;9.754;2023-04-26T13:17:55;2.28;;;1.70;;
22965;SDS011;11649;48.090;9.754;2023-04-26T13:20:22;4.03;;;1.90;;
22965;SDS011;11649;48.090;9.754;2023-04-26T13:22:52;2.97;;;2.05;;
22965;SDS011;11649;48.090;9.754;2023-04-26T13:25:19;2.63;;;1.73;;
22965;SDS011;11649;48.090;9.754;2023-04-26T13:27:45;4.55;;;2.17;;
22965;SDS011;11649;48.090;9.754;2023-04-26T13:30:12;3.65;;;1.90;;
22965;SDS011;11649;48.090;9.754;2023-04-26T13:32:39;4.20;;;2.15;;
22965;SDS011;11649;48.090;9.754;2023-04-26T13:35:06;2.97;;;1.90;;
22965;SDS011;11649;48.090;9.754;2023-04-26T13:37:33;3.00;;;1.80;;
22965;SDS011;11649;48.090;9.754;2023-04-26T13:40:00;3.83;;;2.08;;
22965;SDS011;11649;48.090;9.754;2023-04-26T13:42:29;2.70;;;1.75;;
22965;SDS011;11649;48.090;9.754;2023-04-26T13:44:57;2.72;;;1.80;;
22965;SDS011;11649;48.090;9.754;2023-04-26T13:47:23;3.72;;;1.75;;
22965;SDS011;11649;48.090;9.754;2023-04-26T13:49:51;2.35;;;1.70;;
22965;SDS011;11649;48.090;9.754;2023-04-26T13:52:17;3.30;;;2.00;;
22965;SDS011;11649;48.090;9.754;2023-04-26T13:54:44;2.35;;;1.80;;
22965;SDS011;11649;48.090;9.754;2023-04-26T13:57:11;3.35;;;1.73;;
22965;SDS011;11649;48.090;9.754;2023-04-26T13:59:38;4.90;;;2.05;;
22965;SDS011;11649;48.090;9.754;2023-04-26T14:02:05;4.40;;;2.28;;
22965;SDS011;11649;48.090;9.754;2023-04-26T14:04:32;3.28;;;2.00;;
22965;SDS011;11649;48.090;9.754;2023-04-26T14:06:59;5.40;;;2.72;;
22965;SDS011;11649;48.090;9.754;2023-04-26T14:09:26;4.07;;;2.60;;
22965;SDS011;11649;48.090;9.754;2023-04-26T14:11:53;7.65;;;4.13;;
22965;SDS011;11649;48.090;9.754;2023-04-26T14:14:33;4.13;;;2.15;;
22965;SDS011;11649;48.090;9.754;2023-04-26T14:17:00;2.53;;;1.80;;
22965;SDS011;11649;48.090;9.754;2023-04-26T14:19:26;3.42;;;1.85;;
22965;SDS011;11649;48.090;9.754;2023-04-26T14:21:53;4.47;;;2.05;;
22965;SDS011;11649;48.090;9.754;2023-04-26T14:24:20;4.75;;;1.80;;
22965;SDS011;11649;48.090;9.754;2023-04-26T14:26:47;2.38;;;1.60;;
22965;SDS011;11649;48.090;9.754;2023-04-26T14:29:14;3.75;;;1.80;;
22965;SDS011;11649;48.090;9.754;2023-04-26T14:31:40;3.58;;;2.08;;
22965;SDS011;11649;48.090;9.754;2023-04-26T14:34:07;4.13;;;2.58;;
22965;SDS011;11649;48.090;9.754;2023-04-26T14:36:34;3.55;;;1.90;;
22965;SDS011;11649;48.090;9.754;2023-04-26T14:39:01;3.60;;;2.00;;
22965;SDS011;11649;48.090;9.754;2023-04-26T14:41:28;5.32;;;2.20;;
22965;SDS011;11649;48.090;9.754;2023-04-26T14:43:54;3.05;;;1.95;;
22965;SDS011;11649;48.090;9.754;2023-04-26T14:46:21;5.57;;;3.05;;
22965;SDS011;11649;48.090;9.754;2023-04-26T14:48:48;2.67;;;2.05;;
22965;SDS011;11649;48.090;9.754;2023-04-26T14:51:15;5.30;;;2.58;;
22965;SDS011;11649;48.090;9.754;2023-04-26T14:53:41;3.85;;;2.10;;
22965;SDS011;11649;48.090;9.754;2023-04-26T14:56:08;3.95;;;2.30;;
22965;SDS011;11649;48.090;9.754;2023-04-26T14:58:35;2.72;;;2.20;;